Time;durP1;ratioP1;P1;durP2;ratioP2;P2;SDS_P1;SDS_P2;PMS_P1;PMS_P2;Temp;Humidity;BMP_temperature;BMP_pressure;BME280_temperature;BME280_humidity;BME280_pressure;Samples;Min_cycle;Max_cycle;Signal;HPM_P1;HPM_P2
2022/03/05 00:00:21;;;;;;;2.53;1.60;;;;;;;26.50;24.48;96731.13;4998290;28;20033;-30
2022/03/05 00:02:47;;;;;;;1.75;1.45;;;;;;;26.50;24.35;96723.22;5000926;28;20042;-32
2022/03/05 00:05:15;;;;;;;2.55;1.30;;;;;;;26.50;24.52;96723.22;5000463;28;20030;-31
2022/03/05 00:07:40;;;;;;;1.80;1.50;;;;;;;26.50;24.42;96720.59;4999963;28;20025;-31
2022/03/05 00:10:06;;;;;;;3.42;2.08;;;;;;;26.51;24.43;96713.56;5001553;28;20059;-29
2022/03/05 00:12:31;;;;;;;4.40;1.50;;;;;;;26.48;24.47;96720.69;4999625;28;20453;-32
2022/03/05 00:14:57;;;;;;;2.13;1.50;;;;;;;26.47;24.37;96723.44;5001671;28;20029;-28
2022/03/05 00:17:22;;;;;;;3.05;1.60;;;;;;;26.48;24.46;96718.06;4999238;28;20029;-34
2022/03/05 00:19:48;;;;;;;2.90;1.55;;;;;;;26.48;24.42;96715.44;5004515;28;20026;-37
2022/03/05 00:22:13;;;;;;;2.25;1.63;;;;;;;26.48;24.34;96719.84;5010109;28;20586;-27
2022/03/05 00:24:38;;;;;;;3.20;1.60;;;;;;;26.47;24.44;96724.25;5005883;28;20034;-33
2022/03/05 00:27:04;;;;;;;2.45;1.67;;;;;;;26.48;24.53;96722.47;5009215;28;20033;-30
2022/03/05 00:29:30;;;;;;;1.90;1.40;;;;;;;26.46;24.39;96717.31;5010402;28;20833;-32
2022/03/05 00:31:55;;;;;;;3.72;1.67;;;;;;;26.47;24.42;96726.06;5011342;28;20026;-31
2022/03/05 00:34:20;;;;;;;2.35;1.58;;;;;;;26.46;24.38;96721.72;5010837;28;20033;-33
2022/03/05 00:36:46;;;;;;;2.95;1.88;;;;;;;26.46;24.36;96722.56;5009610;28;20528;-28
2022/03/05 00:39:11;;;;;;;2.88;1.40;;;;;;;26.46;24.56;96722.56;5002995;28;21840;-30
2022/03/05 00:41:37;;;;;;;2.42;1.50;;;;;;;26.46;24.49;96725.19;5001702;28;20033;-33
2022/03/05 00:44:02;;;;;;;1.83;1.40;;;;;;;26.46;24.49;96724.34;4999584;28;20528;-32
2022/03/05 00:46:28;;;;;;;1.60;1.50;;;;;;;26.45;24.50;96723.50;4998434;28;20040;-29
2022/03/05 00:48:53;;;;;;;2.55;1.65;;;;;;;26.45;24.28;96727.91;5002155;28;20476;-31
2022/03/05 00:51:19;;;;;;;2.05;1.40;;;;;;;26.46;24.49;96726.97;4995726;28;20171;-30
2022/03/05 00:53:44;;;;;;;1.75;1.40;;;;;;;26.45;24.40;96725.28;4998106;28;20041;-31
2022/03/05 00:56:09;;;;;;;2.50;1.58;;;;;;;26.45;24.19;96725.28;4999379;28;20036;-34
2022/03/05 00:58:35;;;;;;;2.45;1.30;;;;;;;26.44;24.39;96726.22;5002337;28;20492;-32
2022/03/05 01:01:00;;;;;;;1.75;1.40;;;;;;;26.43;24.49;96721.91;4999375;28;21089;-29
2022/03/05 01:03:26;;;;;;;2.83;1.30;;;;;;;26.43;24.40;96727.16;5001686;28;20078;-32
2022/03/05 01:05:53;;;;;;;1.88;1.50;;;;;;;26.44;24.35;96723.59;5001142;28;20034;-29
2022/03/05 01:08:18;;;;;;;1.48;1.13;;;;;;;26.44;24.59;96728.84;5000738;28;20116;-30
2022/03/05 01:10:44;;;;;;;3.00;1.52;;;;;;;26.43;24.57;96727.16;4999096;28;21013;-29
2022/03/05 01:13:09;;;;;;;1.67;1.30;;;;;;;26.44;24.44;96728.84;5000843;28;20038;-29
2022/03/05 01:15:34;;;;;;;4.60;1.40;;;;;;;26.42;24.37;96717.56;4999776;28;20034;-33
2022/03/05 01:18:00;;;;;;;1.98;1.33;;;;;;;26.42;24.36;96721.03;4996512;28;20034;-34
2022/03/05 01:20:25;;;;;;;2.17;1.50;;;;;;;26.41;24.36;96719.34;4997526;28;20033;-31
2022/03/05 01:22:51;;;;;;;5.80;1.40;;;;;;;26.40;24.40;96712.41;4999556;28;20026;-29
2022/03/05 01:25:16;;;;;;;2.00;1.40;;;;;;;26.41;24.42;96714.09;4999065;28;20033;-31
2022/03/05 01:27:41;;;;;;;2.35;1.30;;;;;;;26.40;24.32;96706.31;4997347;28;20037;-30
2022/03/05 01:30:07;;;;;;;1.75;1.20;;;;;;;26.40;24.36;96706.31;5004029;28;20041;-33
2022/03/05 01:32:33;;;;;;;2.00;1.35;;;;;;;26.41;24.47;96708.00;5008769;28;20044;-33
2022/03/05 01:34:58;;;;;;;3.17;1.50;;;;;;;26.39;24.29;96705.44;5006804;28;20567;-35
2022/03/05 01:37:23;;;;;;;1.55;1.20;;;;;;;26.38;24.53;96709.00;4999177;28;20030;-30
2022/03/05 01:39:49;;;;;;;2.42;1.63;;;;;;;26.40;24.41;96711.56;4998712;28;20029;-31
2022/03/05 01:42:18;;;;;;;2.30;1.40;;;;;;;26.39;24.41;96704.63;4996802;28;20029;-33
2022/03/05 01:44:44;;;;;;;2.25;1.20;;;;;;;26.38;24.44;96700.31;4997026;28;20033;-32
2022/03/05 01:47:09;;;;;;;2.13;1.42;;;;;;;26.36;24.50;96708.28;4998220;28;20029;-34
2022/03/05 01:49:35;;;;;;;1.77;1.30;;;;;;;26.37;24.41;96709.97;4997512;28;20030;-34
2022/03/05 01:52:00;;;;;;;3.22;1.30;;;;;;;26.36;24.39;96703.00;4998258;28;20053;-32
2022/03/05 01:54:26;;;;;;;3.50;1.23;;;;;;;26.35;24.38;96701.31;4997243;28;20037;-34
2022/03/05 01:56:51;;;;;;;3.10;1.33;;;;;;;26.34;24.43;96696.97;4995737;28;20551;-31
2022/03/05 01:59:17;;;;;;;1.58;1.30;;;;;;;26.34;24.49;96696.97;4999452;28;20096;-31
2022/03/05 02:01:42;;;;;;;2.20;1.40;;;;;;;26.34;24.42;96699.63;4998064;28;20092;-35
2022/03/05 02:04:07;;;;;;;2.13;1.23;;;;;;;26.33;24.33;96698.78;4998623;28;20961;-31
2022/03/05 02:06:33;;;;;;;1.35;1.15;;;;;;;26.33;24.46;96701.41;4997962;28;20825;-31
2022/03/05 02:08:59;;;;;;;1.40;1.30;;;;;;;26.33;24.35;96701.41;5000735;28;20092;-32
2022/03/05 02:11:25;;;;;;;2.65;1.20;;;;;;;26.33;24.47;96701.41;4995330;28;20124;-33
2022/03/05 02:13:51;;;;;;;4.63;1.40;;;;;;;26.31;24.40;96698.00;4996690;28;20100;-32
2022/03/05 02:16:16;;;;;;;2.20;1.20;;;;;;;26.32;24.43;96702.31;4993995;28;20037;-33
2022/03/05 02:18:45;;;;;;;1.23;1.00;;;;;;;26.31;24.35;96698.00;4995254;28;20040;-34
2022/03/05 02:21:11;;;;;;;1.60;1.15;;;;;;;26.30;24.44;96706.84;4998940;28;20475;-32
2022/03/05 02:23:36;;;;;;;1.83;1.58;;;;;;;26.31;24.50;96707.69;4998710;28;20038;-30
2022/03/05 02:26:02;;;;;;;1.88;1.50;;;;;;;26.30;24.35;96701.56;4997556;28;20033;-31
2022/03/05 02:28:28;;;;;;;2.70;1.50;;;;;;;26.30;24.51;96704.22;4996895;28;20705;-30
2022/03/05 02:30:54;;;;;;;1.75;1.38;;;;;;;26.29;24.47;96702.53;4998146;28;20033;-30
2022/03/05 02:33:19;;;;;;;3.58;1.58;;;;;;;26.28;24.48;96706.06;4999910;28;20036;-31
2022/03/05 02:35:45;;;;;;;2.72;1.40;;;;;;;26.28;24.48;96702.59;4997353;28;20018;-26
2022/03/05 02:38:15;;;;;;;1.70;1.20;;;;;;;26.28;24.33;96703.44;5001098;28;20033;-34
2022/03/05 02:40:40;;;;;;;1.90;1.17;;;;;;;26.27;24.32;96701.75;5003825;28;20574;-31
2022/03/05 02:43:06;;;;;;;2.20;1.10;;;;;;;26.27;24.46;96693.03;5001402;28;20113;-28
2022/03/05 02:45:32;;;;;;;4.65;1.20;;;;;;;26.26;24.45;96694.81;5003969;28;20022;-36
2022/03/05 02:47:57;;;;;;;1.42;1.15;;;;;;;26.27;24.44;96696.50;5011024;28;20033;-30
2022/03/05 02:50:23;;;;;;;4.05;1.20;;;;;;;26.26;24.48;96693.94;5013312;28;20215;-32
2022/03/05 02:52:48;;;;;;;5.75;1.48;;;;;;;26.26;24.50;96693.94;5013048;28;21095;-35
2022/03/05 02:55:13;;;;;;;2.20;1.27;;;;;;;26.26;24.46;96700.06;5009869;28;20041;-35
2022/03/05 02:57:39;;;;;;;1.60;1.23;;;;;;;26.26;24.44;96699.19;5010907;28;20041;-31
2022/03/05 03:00:05;;;;;;;1.98;1.63;;;;;;;26.25;24.44;96693.09;5011284;28;20061;-33
2022/03/05 03:02:30;;;;;;;2.40;1.30;;;;;;;26.23;24.48;96695.78;5011708;28;20029;-27
2022/03/05 03:04:55;;;;;;;1.85;1.38;;;;;;;26.23;24.45;96689.69;5012105;28;20036;-34
2022/03/05 03:07:21;;;;;;;7.05;2.88;;;;;;;26.22;24.23;96694.09;5012207;28;20022;-32
2022/03/05 03:09:46;;;;;;;8.82;1.70;;;;;;;26.21;24.43;96696.81;5010307;28;20033;-35
2022/03/05 03:12:12;;;;;;;1.98;1.50;;;;;;;26.20;24.38;96700.38;5012226;28;20183;-30
2022/03/05 03:14:37;;;;;;;3.17;1.70;;;;;;;26.19;24.37;96698.66;5009446;28;20041;-33
2022/03/05 03:17:03;;;;;;;1.85;1.40;;;;;;;26.18;24.41;96694.34;5012075;28;20127;-33
2022/03/05 03:19:28;;;;;;;2.72;1.40;;;;;;;26.18;24.44;96702.22;5000539;28;20029;-35
2022/03/05 03:21:54;;;;;;;3.75;1.63;;;;;;;26.17;24.54;96696.16;5002347;28;20037;-30
2022/03/05 03:24:19;;;;;;;1.80;1.60;;;;;;;26.17;24.56;96698.78;5002996;28;20048;-31
2022/03/05 03:26:45;;;;;;;5.28;1.83;;;;;;;26.18;24.43;96707.47;5000181;28;20029;-34
2022/03/05 03:29:11;;;;;;;2.00;1.38;;;;;;;26.17;24.45;96711.06;5003740;28;20083;-30
2022/03/05 03:31:37;;;;;;;4.45;1.42;;;;;;;26.16;24.56;96704.94;5010721;28;20036;-32
2022/03/05 03:34:02;;;;;;;2.15;1.30;;;;;;;26.15;24.51;96705.88;5004184;28;20033;-31
2022/03/05 03:36:28;;;;;;;3.38;1.63;;;;;;;26.16;24.59;96709.38;5001107;28;21361;-31
2022/03/05 03:38:53;;;;;;;3.55;1.40;;;;;;;26.16;24.46;96706.75;5001649;28;20045;-33
2022/03/05 03:41:18;;;;;;;4.15;1.50;;;;;;;26.15;24.60;96708.50;5001630;28;20044;-37
2022/03/05 03:43:44;;;;;;;2.38;1.42;;;;;;;26.15;24.51;96702.41;4998436;28;20531;-34
2022/03/05 03:46:09;;;;;;;5.80;1.48;;;;;;;26.14;24.51;96711.22;5001343;28;20033;-33
2022/03/05 03:48:35;;;;;;;3.33;1.50;;;;;;;26.14;24.47;96705.97;5000802;28;20089;-36
2022/03/05 03:51:00;;;;;;;1.73;1.23;;;;;;;26.14;24.51;96711.22;5002111;28;20087;-32
2022/03/05 03:53:25;;;;;;;2.42;1.20;;;;;;;26.14;24.40;96717.31;5000805;28;20076;-33
2022/03/05 03:55:51;;;;;;;2.75;1.60;;;;;;;26.13;24.47;96712.16;5001864;28;20475;-38
2022/03/05 03:58:16;;;;;;;2.63;1.40;;;;;;;26.13;24.62;96709.53;5003731;28;20707;-29
2022/03/05 04:00:42;;;;;;;1.83;1.20;;;;;;;26.13;24.58;96712.16;5002943;28;20104;-33
2022/03/05 04:03:08;;;;;;;1.50;1.10;;;;;;;26.12;24.51;96713.09;5002963;28;20055;-29
2022/03/05 04:05:33;;;;;;;1.30;0.98;;;;;;;26.13;24.64;96712.16;5002439;28;20624;-31
2022/03/05 04:10:43;;;;;;;1.67;1.30;;;;;;;26.11;24.50;96709.59;5001136;28;20057;-31
2022/03/05 04:13:08;;;;;;;1.45;1.27;;;;;;;26.09;24.58;96714.94;5001088;28;20033;-31
2022/03/05 04:15:33;;;;;;;1.45;1.20;;;;;;;26.10;24.44;96718.44;5000556;28;20037;-32
2022/03/05 04:17:59;;;;;;;2.55;1.20;;;;;;;26.09;24.54;96709.69;4999072;28;20053;-33
2022/03/05 04:20:24;;;;;;;1.80;1.33;;;;;;;26.08;24.55;96710.63;5002057;28;20021;-32
2022/03/05 04:22:50;;;;;;;2.63;1.30;;;;;;;26.08;24.58;96708.00;5000649;28;20038;-33
2022/03/05 04:25:15;;;;;;;2.90;1.25;;;;;;;26.08;24.60;96713.25;4998602;28;20092;-37
2022/03/05 04:27:41;;;;;;;2.22;1.20;;;;;;;26.08;24.55;96707.16;4998777;28;20439;-35
2022/03/05 04:30:07;;;;;;;1.90;1.17;;;;;;;26.07;24.69;96711.56;4998358;28;20092;-34
2022/03/05 04:32:32;;;;;;;1.75;1.40;;;;;;;26.06;24.51;96712.50;4999705;28;20041;-33
2022/03/05 04:34:57;;;;;;;1.25;1.10;;;;;;;26.06;24.49;96709.88;5000224;28;20072;-32
2022/03/05 04:37:23;;;;;;;1.58;1.30;;;;;;;26.06;24.65;96712.50;5000748;28;20025;-31
2022/03/05 04:39:48;;;;;;;1.45;1.10;;;;;;;26.05;24.54;96718.66;4999262;28;20087;-32
2022/03/05 04:42:14;;;;;;;1.65;1.20;;;;;;;26.05;24.61;96718.66;4997295;28;20104;-32
2022/03/05 04:44:39;;;;;;;1.33;1.00;;;;;;;26.06;24.70;96714.28;4999619;28;20033;-31
2022/03/05 04:47:04;;;;;;;1.35;1.20;;;;;;;26.04;24.62;96716.97;5000391;28;20026;-30
2022/03/05 04:49:30;;;;;;;1.67;1.20;;;;;;;26.05;24.67;96723.09;4999389;28;20527;-33
2022/03/05 04:51:55;;;;;;;1.45;1.30;;;;;;;26.04;24.54;96722.22;4997475;28;20033;-34
2022/03/05 04:54:21;;;;;;;2.03;1.20;;;;;;;26.04;24.51;96732.75;5000310;28;20057;-32
2022/03/05 04:56:46;;;;;;;1.20;1.10;;;;;;;26.00;24.65;96725.97;4998485;28;20740;-36
2022/03/05 04:59:12;;;;;;;1.05;0.90;;;;;;;26.03;24.51;96723.16;4999693;28;20037;-29
2022/03/05 05:01:37;;;;;;;2.83;1.30;;;;;;;26.02;24.59;96726.75;4999177;28;20092;-32
2022/03/05 05:04:03;;;;;;;2.03;1.25;;;;;;;26.02;24.54;96729.38;5001366;28;20037;-36
2022/03/05 05:06:28;;;;;;;2.08;1.27;;;;;;;26.02;24.54;96733.75;5002082;28;20030;-35
2022/03/05 05:08:54;;;;;;;1.38;1.10;;;;;;;25.97;24.51;96726.13;5000827;28;20416;-28
2022/03/05 05:11:19;;;;;;;2.47;1.15;;;;;;;26.00;24.63;96723.34;4999150;28;20037;-33
2022/03/05 05:13:44;;;;;;;2.38;1.38;;;;;;;26.01;24.50;96726.81;5000931;28;20029;-34
2022/03/05 05:16:10;;;;;;;1.50;1.10;;;;;;;26.00;24.60;96731.22;5000014;28;20025;-25
2022/03/05 05:18:35;;;;;;;1.20;1.02;;;;;;;25.99;24.65;96734.78;4996015;28;20728;-32
2022/03/05 05:21:01;;;;;;;1.65;1.13;;;;;;;26.00;24.73;96736.47;4996410;28;20026;-32
2022/03/05 05:23:26;;;;;;;2.22;1.40;;;;;;;25.98;24.73;96733.09;5000890;28;20025;-34
2022/03/05 05:25:52;;;;;;;1.83;1.30;;;;;;;25.98;24.67;96738.34;4998495;28;20042;-34
2022/03/05 05:28:17;;;;;;;2.25;1.40;;;;;;;25.96;24.73;96733.16;4997526;28;20038;-30
2022/03/05 05:30:43;;;;;;;1.65;1.35;;;;;;;25.96;24.63;96732.31;5005244;28;20029;-32
2022/03/05 05:33:08;;;;;;;1.40;1.17;;;;;;;25.96;24.64;96734.94;5009173;28;20029;-31
2022/03/05 05:35:33;;;;;;;1.30;1.20;;;;;;;25.96;24.76;96734.94;5001637;28;20021;-30
2022/03/05 05:37:59;;;;;;;2.28;0.93;;;;;;;25.96;24.76;96734.94;5007544;28;20617;-34
2022/03/05 05:40:24;;;;;;;1.38;1.10;;;;;;;25.96;24.56;96740.19;5010676;28;20021;-32
2022/03/05 05:42:50;;;;;;;1.10;1.00;;;;;;;25.94;24.56;96744.69;5008921;28;20022;-31
2022/03/05 05:45:15;;;;;;;1.65;1.10;;;;;;;25.94;24.55;96749.94;5005039;28;20037;-35
2022/03/05 05:47:40;;;;;;;3.03;1.40;;;;;;;25.94;24.69;96755.19;5008669;28;20025;-32
2022/03/05 05:50:06;;;;;;;1.60;1.10;;;;;;;25.94;24.56;96755.19;5009548;28;20515;-32
2022/03/05 05:52:32;;;;;;;1.33;1.23;;;;;;;25.93;24.68;96758.75;5010332;28;20021;-33
2022/03/05 05:54:58;;;;;;;2.55;1.20;;;;;;;25.93;24.63;96756.94;5005227;28;20091;-34
2022/03/05 05:57:23;;;;;;;2.13;1.30;;;;;;;25.93;24.73;96774.50;5008340;28;20527;-32
2022/03/05 05:59:49;;;;;;;2.30;0.93;;;;;;;25.92;24.69;96764.91;5006706;28;20036;-34
2022/03/05 06:02:14;;;;;;;1.48;1.30;;;;;;;25.92;24.61;96770.16;5009853;28;20025;-34
2022/03/05 06:04:40;;;;;;;1.52;1.20;;;;;;;25.90;24.67;96766.78;5009571;28;20029;-34
2022/03/05 06:07:05;;;;;;;1.10;0.98;;;;;;;25.91;24.75;96773.72;5002743;28;20030;-32
2022/03/05 06:09:30;;;;;;;1.67;1.15;;;;;;;25.91;24.74;96773.72;4997161;28;20029;-36
2022/03/05 06:11:56;;;;;;;1.25;1.10;;;;;;;25.90;24.63;96772.03;4998619;28;20025;-34
2022/03/05 06:14:21;;;;;;;1.52;1.05;;;;;;;25.91;24.64;96776.34;4997575;28;20725;-31
2022/03/05 06:16:47;;;;;;;1.35;1.00;;;;;;;25.91;24.65;96776.34;4998271;28;20026;-34
2022/03/05 06:19:12;;;;;;;1.80;1.20;;;;;;;25.90;24.54;96772.03;4999014;28;20088;-32
2022/03/05 06:21:38;;;;;;;1.45;1.13;;;;;;;25.90;24.14;96788.63;4998369;28;20036;-31
2022/03/05 06:24:04;;;;;;;2.03;0.85;;;;;;;25.90;24.77;96790.41;4997795;28;20037;-35
2022/03/05 06:26:31;;;;;;;4.65;1.23;;;;;;;25.90;24.69;96785.16;4997753;28;20033;-35
2022/03/05 06:28:57;;;;;;;1.27;1.00;;;;;;;25.90;24.58;96782.53;4995932;28;20044;-30
2022/03/05 06:31:23;;;;;;;1.25;1.10;;;;;;;25.90;24.52;96783.38;4997701;28;20033;-28
2022/03/05 06:33:48;;;;;;;1.10;0.80;;;;;;;25.91;24.56;96794.72;4996017;28;20621;-31
2022/03/05 06:36:13;;;;;;;1.33;0.90;;;;;;;25.90;24.62;96788.63;4997898;28;20537;-33
2022/03/05 06:38:39;;;;;;;3.10;1.10;;;;;;;25.90;24.65;96786.00;4998497;28;20038;-29
2022/03/05 06:41:04;;;;;;;1.55;1.20;;;;;;;25.92;24.64;96799.03;4999799;28;20026;-32
2022/03/05 06:43:30;;;;;;;5.97;1.83;;;;;;;25.92;24.65;96799.03;4997618;28;20025;-27
2022/03/05 06:45:55;;;;;;;6.10;1.85;;;;;;;25.91;24.59;96806.09;4994581;28;20108;-33
2022/03/05 06:48:20;;;;;;;6.07;2.10;;;;;;;25.92;24.73;96807.78;4996513;28;20726;-34
2022/03/05 06:50:46;;;;;;;3.67;2.13;;;;;;;25.92;24.70;96812.16;4998023;28;20469;-35
2022/03/05 06:53:11;;;;;;;4.78;2.08;;;;;;;25.92;24.62;96804.28;4996784;28;20534;-32
2022/03/05 06:55:37;;;;;;;5.22;2.22;;;;;;;25.94;24.61;96815.56;4994148;28;20038;-32
2022/03/05 06:58:02;;;;;;;6.32;2.13;;;;;;;25.94;24.80;96813.78;4996294;28;20041;-35
2022/03/05 07:00:27;;;;;;;7.60;3.00;;;;;;;25.95;24.85;96812.00;4997803;28;20750;-32
2022/03/05 07:02:53;;;;;;;6.47;2.80;;;;;;;25.95;24.80;96817.25;4985803;28;20622;-32
2022/03/05 07:05:18;;;;;;;5.75;2.55;;;;;;;25.96;24.85;96818.94;4998211;28;20030;-32
2022/03/05 07:07:44;;;;;;;9.32;2.88;;;;;;;25.96;24.89;96814.56;4996732;28;20036;-27
2022/03/05 07:10:09;;;;;;;7.97;3.00;;;;;;;25.98;24.83;96824.13;4995929;28;20028;-33
2022/03/05 07:12:35;;;;;;;6.25;2.58;;;;;;;25.98;24.86;96822.38;4995937;28;20080;-34
2022/03/05 07:15:01;;;;;;;7.07;3.08;;;;;;;25.98;24.92;96822.38;4993049;28;20029;-31
2022/03/05 07:17:26;;;;;;;7.85;3.17;;;;;;;26.01;24.89;96822.19;4996046;28;20048;-30
2022/03/05 07:19:54;;;;;;;12.27;3.17;;;;;;;26.00;24.90;96825.75;4993805;28;20033;-32
2022/03/05 07:22:19;;;;;;;6.80;3.00;;;;;;;26.01;24.88;96824.81;4993610;28;20029;-34
2022/03/05 07:24:45;;;;;;;10.57;3.45;;;;;;;26.01;24.97;96827.44;4999869;28;20037;-34
2022/03/05 07:27:10;;;;;;;7.95;2.90;;;;;;;26.02;25.03;96818.66;4996319;28;20029;-34
2022/03/05 07:29:35;;;;;;;8.10;3.08;;;;;;;26.02;25.08;96823.91;5005120;28;20025;-31
2022/03/05 07:32:03;;;;;;;8.93;3.03;;;;;;;26.02;25.05;96823.91;5002997;28;20037;-32
2022/03/05 07:34:29;;;;;;;10.35;3.20;;;;;;;26.05;25.11;96822.88;4998691;28;20021;-30
2022/03/05 07:36:55;;;;;;;7.30;3.10;;;;;;;26.04;25.18;96819.41;4998521;28;20119;-34
2022/03/05 07:39:20;;;;;;;7.80;3.00;;;;;;;26.06;25.10;96816.69;4998174;28;20038;-30
2022/03/05 07:41:46;;;;;;;7.35;2.67;;;;;;;26.07;25.31;96821.00;4998308;28;20045;-32
2022/03/05 07:44:11;;;;;;;7.82;3.20;;;;;;;26.08;25.13;96818.31;5001110;28;20026;-33
2022/03/05 07:46:37;;;;;;;7.10;2.80;;;;;;;26.09;25.26;96824.41;4998228;28;20737;-31
2022/03/05 07:49:03;;;;;;;8.48;3.15;;;;;;;26.10;25.13;96813.78;4996777;28;21338;-31
2022/03/05 07:51:28;;;;;;;7.35;3.15;;;;;;;26.12;25.29;96815.50;4999348;28;20036;-30
2022/03/05 07:53:53;;;;;;;5.82;3.05;;;;;;;26.12;25.14;96812.88;4998807;28;20038;-30
2022/03/05 07:56:20;;;;;;;6.40;3.28;;;;;;;26.14;25.21;96817.13;5001180;28;20048;-37
2022/03/05 07:58:46;;;;;;;6.40;3.00;;;;;;;26.15;25.30;96818.81;4997649;28;20037;-29
2022/03/05 08:01:11;;;;;;;6.90;3.05;;;;;;;26.17;25.13;96822.22;5000483;28;20041;-34
2022/03/05 08:03:37;;;;;;;6.03;3.10;;;;;;;26.20;25.20;96823.84;4999793;28;20037;-32
2022/03/05 08:06:02;;;;;;;7.22;3.20;;;;;;;26.17;24.92;96810.84;5000911;28;20040;-28
2022/03/05 08:08:27;;;;;;;12.55;3.45;;;;;;;26.23;25.16;96821.88;5001819;28;20037;-34
2022/03/05 08:10:54;;;;;;;7.00;2.92;;;;;;;26.25;25.18;96829.69;4997007;28;20037;-30
2022/03/05 08:13:19;;;;;;;11.48;3.42;;;;;;;26.27;25.04;96827.00;4999679;28;20186;-28
2022/03/05 08:15:45;;;;;;;8.85;4.85;;;;;;;26.30;24.79;96832.06;4997213;28;20025;-31
2022/03/05 08:18:10;;;;;;;6.85;3.00;;;;;;;26.30;24.87;96832.06;4995954;28;20036;-36
2022/03/05 08:20:36;;;;;;;9.15;3.35;;;;;;;26.32;24.97;96824.97;5000525;28;20045;-32
2022/03/05 08:23:01;;;;;;;5.07;3.03;;;;;;;26.34;24.87;96817.84;5000491;28;20498;-37
2022/03/05 08:25:27;;;;;;;5.38;2.83;;;;;;;26.35;24.88;96815.13;4998871;28;20034;-34
2022/03/05 08:27:52;;;;;;;6.30;3.08;;;;;;;26.39;25.01;96823.69;4996184;28;20037;-36
2022/03/05 08:30:18;;;;;;;5.30;2.53;;;;;;;26.41;24.97;96818.34;4997753;28;21025;-33
2022/03/05 08:32:43;;;;;;;6.90;2.92;;;;;;;26.43;24.83;96817.31;4998447;28;20265;-32
2022/03/05 08:35:09;;;;;;;6.15;2.90;;;;;;;26.46;24.87;96827.69;4997760;28;20029;-29
2022/03/05 08:37:35;;;;;;;6.50;3.40;;;;;;;26.49;24.81;96821.41;4998316;28;20041;-34
2022/03/05 08:40:00;;;;;;;4.95;2.92;;;;;;;26.52;24.90;96825.63;5000048;28;20025;-29
2022/03/05 08:42:26;;;;;;;4.55;2.90;;;;;;;26.53;24.83;96822.94;4999588;28;20920;-37
2022/03/05 08:44:51;;;;;;;8.55;2.97;;;;;;;26.55;24.83;96823.66;4999817;28;21085;-32
2022/03/05 08:47:16;;;;;;;5.47;2.60;;;;;;;26.58;24.89;96820.88;4999085;28;20523;-28
2022/03/05 08:49:42;;;;;;;5.80;2.72;;;;;;;26.60;24.68;96826.91;4999505;28;20030;-29
2022/03/05 08:52:08;;;;;;;7.13;3.05;;;;;;;26.63;24.75;96827.66;4999520;28;20026;-31
2022/03/05 08:54:34;;;;;;;7.07;2.90;;;;;;;26.65;24.77;96828.44;4996272;28;20045;-32
2022/03/05 08:56:59;;;;;;;5.63;2.90;;;;;;;26.66;24.71;96823.06;4995649;28;20679;-33
2022/03/05 08:59:25;;;;;;;7.13;2.70;;;;;;;26.68;24.79;96826.47;4996353;28;20037;-29
2022/03/05 09:01:50;;;;;;;5.95;2.78;;;;;;;26.70;24.65;96823.78;4997025;28;20025;-29
2022/03/05 09:04:15;;;;;;;4.72;2.55;;;;;;;26.71;24.67;96821.06;4999603;28;20033;-31
2022/03/05 09:06:41;;;;;;;3.97;2.63;;;;;;;26.73;24.65;96823.56;4992794;28;20045;-35
2022/03/05 09:09:06;;;;;;;5.10;2.60;;;;;;;26.74;24.66;96827.91;4979546;28;20691;-33
2022/03/05 09:11:32;;;;;;;5.25;2.65;;;;;;;26.76;24.52;96828.66;4984417;28;20038;-32
2022/03/05 09:13:57;;;;;;;7.95;2.72;;;;;;;26.78;24.56;96821.56;4993201;28;20926;-31
2022/03/05 09:16:23;;;;;;;16.52;9.25;;;;;;;26.76;21.15;96823.41;4991337;28;20033;-33
2022/03/05 09:18:48;;;;;;;13.52;10.63;;;;;;;26.55;17.33;96815.78;4992239;28;20075;-36
2022/03/05 09:21:14;;;;;;;15.63;10.77;;;;;;;26.24;14.45;96812.22;4989752;28;20661;-33
2022/03/05 09:23:39;;;;;;;17.58;10.57;;;;;;;25.86;15.11;96812.50;4990633;28;20555;-35
2022/03/05 09:26:04;;;;;;;15.85;9.95;;;;;;;25.52;15.65;96810.69;4993009;28;20033;-29
2022/03/05 09:28:30;;;;;;;17.83;9.18;;;;;;;25.29;16.69;96817.94;4993482;28;20044;-31
2022/03/05 09:30:55;;;;;;;12.93;8.75;;;;;;;25.15;16.74;96816.03;5001482;28;20030;-33
2022/03/05 09:33:22;;;;;;;10.43;7.88;;;;;;;25.08;17.39;96819.03;5004480;28;20074;-31
2022/03/05 09:35:51;;;;;;;13.90;6.97;;;;;;;25.03;17.85;96820.13;5007529;28;20053;-30
2022/03/05 09:38:17;;;;;;;12.45;7.07;;;;;;;25.02;18.20;96821.03;5004275;28;20033;-27
2022/03/05 09:40:42;;;;;;;10.82;6.45;;;;;;;25.05;18.58;96813.03;5005145;28;20060;-29
2022/03/05 09:43:08;;;;;;;7.70;5.88;;;;;;;25.09;18.97;96813.72;5000795;28;20137;-30
2022/03/05 09:45:33;;;;;;;8.27;5.88;;;;;;;25.15;19.00;96817.81;4997203;28;20518;-35
2022/03/05 09:47:59;;;;;;;8.88;5.55;;;;;;;25.21;19.25;96812.28;4994525;28;20191;-34
2022/03/05 09:50:26;;;;;;;10.75;5.60;;;;;;;25.26;19.61;96815.50;4989421;28;20422;-30
2022/03/05 09:52:51;;;;;;;8.52;5.25;;;;;;;25.34;19.74;96812.47;4993404;28;21750;-32
2022/03/05 09:55:17;;;;;;;8.02;5.20;;;;;;;25.39;19.91;96807.84;4994698;28;20034;-31
2022/03/05 09:57:42;;;;;;;7.70;4.75;;;;;;;25.47;20.02;96811.88;4999909;28;20045;-28
2022/03/05 10:00:08;;;;;;;12.00;4.95;;;;;;;25.52;20.23;96805.44;4997826;28;20030;-33
2022/03/05 10:02:33;;;;;;;10.43;5.38;;;;;;;25.59;20.22;96807.78;4996691;28;20044;-27
2022/03/05 10:05:11;;;;;;;8.15;4.80;;;;;;;25.65;20.45;96804.81;4998044;28;20037;-35
2022/03/05 10:07:38;;;;;;;8.65;4.78;;;;;;;25.71;20.28;96799.28;4995334;28;21559;-29
2022/03/05 10:10:07;;;;;;;5.70;4.50;;;;;;;25.77;20.51;96798.94;4991266;28;20034;-29
2022/03/05 10:12:33;;;;;;;13.90;4.68;;;;;;;25.81;20.70;96803.09;4992690;28;21109;-32
2022/03/05 10:15:09;;;;;;;12.73;4.78;;;;;;;25.86;20.55;96789.75;4993283;28;20061;-32
2022/03/05 10:17:49;;;;;;;25.98;4.80;;;;;;;25.93;20.78;96803.38;4995909;28;20972;-30
2022/03/05 10:20:15;;;;;;;10.93;4.78;;;;;;;25.96;20.78;96797.94;4997271;28;20026;-33
2022/03/05 10:22:59;;;;;;;10.90;4.07;;;;;;;26.02;20.87;96795.00;4991965;28;20034;-37
2022/03/05 10:25:36;;;;;;;9.45;5.78;;;;;;;26.05;20.93;96792.19;4977837;28;20141;-34
2022/03/05 10:28:02;;;;;;;8.35;4.20;;;;;;;26.11;21.07;96801.53;4963224;28;20038;-35
2022/03/05 10:30:31;;;;;;;7.85;4.10;;;;;;;26.15;21.10;96797.81;4965765;28;20057;-35
2022/03/05 10:32:57;;;;;;;6.03;4.10;;;;;;;26.18;21.28;96789.75;4963251;28;20036;-33
2022/03/05 10:35:23;;;;;;;6.53;3.85;;;;;;;26.22;21.18;96788.66;4960875;28;20510;-33
2022/03/05 10:37:52;;;;;;;5.50;4.20;;;;;;;26.26;21.30;96794.63;4962845;28;20029;-33
2022/03/05 10:40:28;;;;;;;6.65;4.28;;;;;;;26.29;21.34;96793.59;4961985;28;20111;-29
2022/03/05 10:42:53;;;;;;;6.63;3.53;;;;;;;26.34;21.30;96799.44;4959537;28;20037;-33
2022/03/05 10:45:19;;;;;;;6.38;4.22;;;;;;;26.35;21.46;96794.13;4965335;28;21969;-35
2022/03/05 10:47:46;;;;;;;8.25;3.90;;;;;;;26.39;21.50;96799.19;4965950;28;20379;-32
2022/03/05 10:50:26;;;;;;;5.85;3.90;;;;;;;26.42;21.48;96796.38;4961655;28;20030;-30
2022/03/05 10:52:54;;;;;;;6.45;3.72;;;;;;;26.44;21.48;96790.13;4960625;28;20057;-33
2022/03/05 10:55:24;;;;;;;9.20;3.85;;;;;;;26.46;21.60;96784.78;4963555;28;20065;-32
2022/03/05 10:57:59;;;;;;;5.38;3.70;;;;;;;26.50;21.71;96785.47;4963944;28;20026;-33
2022/03/05 11:00:25;;;;;;;5.22;3.55;;;;;;;26.51;21.72;96793.28;4970079;28;20048;-32
2022/03/05 11:02:51;;;;;;;4.72;3.50;;;;;;;26.53;21.68;96783.50;4968620;28;20259;-33
2022/03/05 11:05:19;;;;;;;5.15;3.30;;;;;;;26.55;21.84;96781.63;4972241;28;20041;-33
2022/03/05 11:07:46;;;;;;;18.58;3.78;;;;;;;26.57;21.88;96786.78;4953990;28;20168;-31
2022/03/05 11:10:11;;;;;;;6.28;3.13;;;;;;;26.58;21.90;96778.84;4960817;28;20098;-31
2022/03/05 11:12:41;;;;;;;6.03;3.42;;;;;;;26.59;21.88;96783.16;4969503;28;20289;-36
2022/03/05 11:15:07;;;;;;;5.80;3.63;;;;;;;26.62;21.89;96776.91;4968498;28;20048;-28
2022/03/05 11:17:33;;;;;;;6.32;3.60;;;;;;;26.62;21.90;96774.28;4966763;28;20021;-37
2022/03/05 11:19:58;;;;;;;8.90;3.80;;;;;;;26.64;22.10;96780.28;4966457;28;20574;-32
2022/03/05 11:22:23;;;;;;;4.82;3.15;;;;;;;26.65;22.10;96773.25;4968380;28;20041;-32
2022/03/05 11:24:49;;;;;;;4.28;3.00;;;;;;;26.66;22.17;96770.50;4981955;28;20038;-33
2022/03/05 11:27:15;;;;;;;4.38;3.45;;;;;;;26.68;22.20;96768.66;5002382;28;20029;-33